sensor_id;sensor_type;location;lat;lon;timestamp;temperature;humidity
66184;DHT22;52989;48.796;9.806;2022-09-12T00:00:39;11.60;99.90
66184;DHT22;52989;48.796;9.806;2022-09-12T00:03:05;11.60;99.90
66184;DHT22;52989;48.796;9.806;2022-09-12T00:05:31;11.50;99.90
66184;DHT22;52989;48.796;9.806;2022-09-12T00:07:57;11.50;99.90
66184;DHT22;52989;48.796;9.806;2022-09-12T00:10:23;11.30;99.90
66184;DHT22;52989;48.796;9.806;2022-09-12T00:12:49;11.30;99.90
66184;DHT22;52989;48.796;9.806;2022-09-12T00:15:15;11.20;99.90
66184;DHT22;52989;48.796;9.806;2022-09-12T00:17:40;11.10;99.90
66184;DHT22;52989;48.796;9.806;2022-09-12T00:20:07;11.10;99.90
66184;DHT22;52989;48.796;9.806;2022-09-12T00:22:34;11.00;99.90
66184;DHT22;52989;48.796;9.806;2022-09-12T00:25:00;11.00;99.90
66184;DHT22;52989;48.796;9.806;2022-09-12T00:27:26;11.00;99.90
66184;DHT22;52989;48.796;9.806;2022-09-12T00:29:52;11.10;99.90
66184;DHT22;52989;48.796;9.806;2022-09-12T00:32:18;11.10;99.90
66184;DHT22;52989;48.796;9.806;2022-09-12T00:34:44;11.50;99.90
66184;DHT22;52989;48.796;9.806;2022-09-12T00:37:09;11.30;99.90
66184;DHT22;52989;48.796;9.806;2022-09-12T00:39:35;11.20;99.90
66184;DHT22;52989;48.796;9.806;2022-09-12T00:42:01;11.10;99.90
66184;DHT22;52989;48.796;9.806;2022-09-12T00:47:11;11.00;99.90
66184;DHT22;52989;48.796;9.806;2022-09-12T00:49:51;11.20;99.90
66184;DHT22;52989;48.796;9.806;2022-09-12T00:52:28;11.00;99.90
66184;DHT22;52989;48.796;9.806;2022-09-12T00:57:37;10.80;99.90
66184;DHT22;52989;48.796;9.806;2022-09-12T01:00:12;10.70;99.90
66184;DHT22;52989;48.796;9.806;2022-09-12T01:02:43;10.90;99.90
66184;DHT22;52989;48.796;9.806;2022-09-12T01:05:10;10.70;99.90
66184;DHT22;52989;48.796;9.806;2022-09-12T01:07:38;10.50;99.90
66184;DHT22;52989;48.796;9.806;2022-09-12T01:10:04;10.50;99.90
66184;DHT22;52989;48.796;9.806;2022-09-12T01:12:30;10.50;99.90
66184;DHT22;52989;48.796;9.806;2022-09-12T01:14:57;10.50;99.90
66184;DHT22;52989;48.796;9.806;2022-09-12T01:17:33;10.50;99.90
66184;DHT22;52989;48.796;9.806;2022-09-12T01:20:26;10.50;99.90
66184;DHT22;52989;48.796;9.806;2022-09-12T01:26:01;10.40;99.90
66184;DHT22;52989;48.796;9.806;2022-09-12T01:31:15;10.40;99.90
66184;DHT22;52989;48.796;9.806;2022-09-12T01:33:54;10.30;99.90
66184;DHT22;52989;48.796;9.806;2022-09-12T01:39:15;10.30;99.90
66184;DHT22;52989;48.796;9.806;2022-09-12T01:42:02;10.30;99.90
66184;DHT22;52989;48.796;9.806;2022-09-12T01:47:21;10.30;99.90
66184;DHT22;52989;48.796;9.806;2022-09-12T01:50:03;10.40;99.90
66184;DHT22;52989;48.796;9.806;2022-09-12T01:55:08;10.50;99.90
66184;DHT22;52989;48.796;9.806;2022-09-12T01:57:50;10.40;99.90
66184;DHT22;52989;48.796;9.806;2022-09-12T02:00:18;10.20;99.90
66184;DHT22;52989;48.796;9.806;2022-09-12T02:03:00;10.10;99.90
66184;DHT22;52989;48.796;9.806;2022-09-12T02:05:32;10.20;99.90
66184;DHT22;52989;48.796;9.806;2022-09-12T02:08:09;10.20;99.90
66184;DHT22;52989;48.796;9.806;2022-09-12T02:10:42;10.10;99.90
66184;DHT22;52989;48.796;9.806;2022-09-12T02:13:17;10.10;99.90
66184;DHT22;52989;48.796;9.806;2022-09-12T02:15:47;10.10;99.90
66184;DHT22;52989;48.796;9.806;2022-09-12T02:18:15;10.10;99.90
66184;DHT22;52989;48.796;9.806;2022-09-12T02:20:45;10.10;99.90
66184;DHT22;52989;48.796;9.806;2022-09-12T02:23:17;10.40;99.90
66184;DHT22;52989;48.796;9.806;2022-09-12T02:25:47;10.10;99.90
66184;DHT22;52989;48.796;9.806;2022-09-12T02:28:17;10.00;99.90
66184;DHT22;52989;48.796;9.806;2022-09-12T02:30:58;10.00;99.90
66184;DHT22;52989;48.796;9.806;2022-09-12T02:33:37;9.90;99.90
66184;DHT22;52989;48.796;9.806;2022-09-12T02:36:26;9.90;99.90
66184;DHT22;52989;48.796;9.806;2022-09-12T02:38:53;10.10;99.90
66184;DHT22;52989;48.796;9.806;2022-09-12T02:41:20;10.10;99.90
66184;DHT22;52989;48.796;9.806;2022-09-12T02:43:47;10.10;99.90
66184;DHT22;52989;48.796;9.806;2022-09-12T02:46:23;10.10;99.90
66184;DHT22;52989;48.796;9.806;2022-09-12T02:48:51;10.10;99.90
66184;DHT22;52989;48.796;9.806;2022-09-12T02:51:17;10.00;99.90
66184;DHT22;52989;48.796;9.806;2022-09-12T02:53:43;10.10;99.90
66184;DHT22;52989;48.796;9.806;2022-09-12T02:56:13;10.60;99.90
66184;DHT22;52989;48.796;9.806;2022-09-12T02:58:41;10.30;99.90
66184;DHT22;52989;48.796;9.806;2022-09-12T03:12:56;10.00;99.90
66184;DHT22;52989;48.796;9.806;2022-09-12T03:21:48;9.90;99.90
66184;DHT22;52989;48.796;9.806;2022-09-12T03:24:19;9.80;99.90
66184;DHT22;52989;48.796;9.806;2022-09-12T03:29:56;9.80;99.90
66184;DHT22;52989;48.796;9.806;2022-09-12T03:35:06;9.50;99.90
66184;DHT22;52989;48.796;9.806;2022-09-12T03:37:32;9.50;99.90
66184;DHT22;52989;48.796;9.806;2022-09-12T03:39:57;9.50;99.90
66184;DHT22;52989;48.796;9.806;2022-09-12T03:42:23;9.60;99.90
66184;DHT22;52989;48.796;9.806;2022-09-12T03:44:48;10.50;99.90
66184;DHT22;52989;48.796;9.806;2022-09-12T03:47:15;9.80;99.90
66184;DHT22;52989;48.796;9.806;2022-09-12T03:49:40;9.70;99.90
66184;DHT22;52989;48.796;9.806;2022-09-12T03:52:06;9.70;99.90
66184;DHT22;52989;48.796;9.806;2022-09-12T03:54:32;9.80;99.90
66184;DHT22;52989;48.796;9.806;2022-09-12T03:56:57;9.60;99.90
66184;DHT22;52989;48.796;9.806;2022-09-12T03:59:23;9.80;99.90
66184;DHT22;52989;48.796;9.806;2022-09-12T04:01:48;9.50;99.90
66184;DHT22;52989;48.796;9.806;2022-09-12T04:04:14;9.40;99.90
66184;DHT22;52989;48.796;9.806;2022-09-12T04:06:39;9.40;99.90
66184;DHT22;52989;48.796;9.806;2022-09-12T04:09:06;9.40;99.90
66184;DHT22;52989;48.796;9.806;2022-09-12T04:11:31;9.30;99.90
66184;DHT22;52989;48.796;9.806;2022-09-12T04:13:57;9.30;99.90
66184;DHT22;52989;48.796;9.806;2022-09-12T04:16:23;9.70;99.90
66184;DHT22;52989;48.796;9.806;2022-09-12T04:18:48;9.40;99.90
66184;DHT22;52989;48.796;9.806;2022-09-12T04:21:16;9.30;99.90
66184;DHT22;52989;48.796;9.806;2022-09-12T04:23:42;9.10;99.90
66184;DHT22;52989;48.796;9.806;2022-09-12T04:26:09;9.20;99.90
66184;DHT22;52989;48.796;9.806;2022-09-12T04:28:36;9.10;99.90
66184;DHT22;52989;48.796;9.806;2022-09-12T04:31:20;9.00;99.90
66184;DHT22;52989;48.796;9.806;2022-09-12T04:33:53;9.10;99.90
66184;DHT22;52989;48.796;9.806;2022-09-12T04:36:19;9.10;99.90
66184;DHT22;52989;48.796;9.806;2022-09-12T04:38:46;9.20;99.90
66184;DHT22;52989;48.796;9.806;2022-09-12T04:41:13;9.20;99.90
66184;DHT22;52989;48.796;9.806;2022-09-12T04:43:39;9.20;99.90
66184;DHT22;52989;48.796;9.806;2022-09-12T04:46:08;9.10;99.90
66184;DHT22;52989;48.796;9.806;2022-09-12T04:48:34;9.20;99.90
66184;DHT22;52989;48.796;9.806;2022-09-12T04:51:27;9.10;99.90
66184;DHT22;52989;48.796;9.806;2022-09-12T04:53:59;9.00;99.90
66184;DHT22;52989;48.796;9.806;2022-09-12T04:56:26;9.10;99.90
66184;DHT22;52989;48.796;9.806;2022-09-12T04:58:52;9.20;99.90
66184;DHT22;52989;48.796;9.806;2022-09-12T05:01:19;9.10;99.90
66184;DHT22;52989;48.796;9.806;2022-09-12T05:03:46;9.10;99.90
66184;DHT22;52989;48.796;9.806;2022-09-12T05:06:21;9.00;99.90
66184;DHT22;52989;48.796;9.806;2022-09-12T05:08:48;9.00;99.90
66184;DHT22;52989;48.796;9.806;2022-09-12T05:11:16;9.10;99.90
66184;DHT22;52989;48.796;9.806;2022-09-12T05:13:43;9.20;99.90
66184;DHT22;52989;48.796;9.806;2022-09-12T05:16:14;9.40;99.90
66184;DHT22;52989;48.796;9.806;2022-09-12T05:18:40;9.30;99.90
66184;DHT22;52989;48.796;9.806;2022-09-12T05:21:08;9.20;99.90
66184;DHT22;52989;48.796;9.806;2022-09-12T05:23:35;9.10;99.90
66184;DHT22;52989;48.796;9.806;2022-09-12T05:26:01;9.10;99.90
66184;DHT22;52989;48.796;9.806;2022-09-12T05:28:34;9.20;99.90
66184;DHT22;52989;48.796;9.806;2022-09-12T05:31:02;9.40;99.90
66184;DHT22;52989;48.796;9.806;2022-09-12T05:33:29;9.60;99.90
66184;DHT22;52989;48.796;9.806;2022-09-12T05:35:55;9.40;99.90
66184;DHT22;52989;48.796;9.806;2022-09-12T05:38:21;9.40;99.90
66184;DHT22;52989;48.796;9.806;2022-09-12T05:40:47;9.30;99.90
66184;DHT22;52989;48.796;9.806;2022-09-12T05:43:13;9.30;99.90
66184;DHT22;52989;48.796;9.806;2022-09-12T05:45:39;9.20;99.90
66184;DHT22;52989;48.796;9.806;2022-09-12T05:48:05;9.20;99.90
66184;DHT22;52989;48.796;9.806;2022-09-12T05:50:31;9.20;99.90
66184;DHT22;52989;48.796;9.806;2022-09-12T05:52:57;9.20;99.90
66184;DHT22;52989;48.796;9.806;2022-09-12T05:55:23;9.50;99.90
66184;DHT22;52989;48.796;9.806;2022-09-12T05:57:49;9.50;99.90
66184;DHT22;52989;48.796;9.806;2022-09-12T06:00:15;9.40;99.90
66184;DHT22;52989;48.796;9.806;2022-09-12T06:02:41;9.50;99.90
66184;DHT22;52989;48.796;9.806;2022-09-12T06:05:07;9.40;99.90
66184;DHT22;52989;48.796;9.806;2022-09-12T06:07:33;9.50;99.90
66184;DHT22;52989;48.796;9.806;2022-09-12T06:10:00;9.50;99.90
66184;DHT22;52989;48.796;9.806;2022-09-12T06:12:28;9.60;99.90
66184;DHT22;52989;48.796;9.806;2022-09-12T06:14:54;9.50;99.90
66184;DHT22;52989;48.796;9.806;2022-09-12T06:17:20;9.70;99.90
66184;DHT22;52989;48.796;9.806;2022-09-12T06:19:46;9.70;99.90
66184;DHT22;52989;48.796;9.806;2022-09-12T06:22:12;9.70;99.90
66184;DHT22;52989;48.796;9.806;2022-09-12T06:24:38;9.90;99.90
66184;DHT22;52989;48.796;9.806;2022-09-12T06:27:04;10.20;99.90
66184;DHT22;52989;48.796;9.806;2022-09-12T06:29:29;11.10;99.90
66184;DHT22;52989;48.796;9.806;2022-09-12T06:31:57;10.70;99.90
66184;DHT22;52989;48.796;9.806;2022-09-12T06:34:23;10.40;99.90
66184;DHT22;52989;48.796;9.806;2022-09-12T06:36:49;10.40;99.90
66184;DHT22;52989;48.796;9.806;2022-09-12T06:39:19;10.40;99.90
66184;DHT22;52989;48.796;9.806;2022-09-12T06:41:46;10.50;99.90
66184;DHT22;52989;48.796;9.806;2022-09-12T06:44:18;10.70;99.90
66184;DHT22;52989;48.796;9.806;2022-09-12T06:46:44;10.70;99.90
66184;DHT22;52989;48.796;9.806;2022-09-12T06:49:10;10.70;99.90
66184;DHT22;52989;48.796;9.806;2022-09-12T06:51:35;11.00;99.90
66184;DHT22;52989;48.796;9.806;2022-09-12T06:54:02;11.10;99.90
66184;DHT22;52989;48.796;9.806;2022-09-12T06:56:28;11.50;99.90
66184;DHT22;52989;48.796;9.806;2022-09-12T06:58:55;11.40;99.90
66184;DHT22;52989;48.796;9.806;2022-09-12T07:01:31;11.50;99.90
66184;DHT22;52989;48.796;9.806;2022-09-12T07:03:59;11.40;99.90
66184;DHT22;52989;48.796;9.806;2022-09-12T07:06:34;11.60;99.90
66184;DHT22;52989;48.796;9.806;2022-09-12T07:09:01;11.80;99.90
66184;DHT22;52989;48.796;9.806;2022-09-12T07:11:29;12.70;99.90
66184;DHT22;52989;48.796;9.806;2022-09-12T07:13:57;12.60;99.90
66184;DHT22;52989;48.796;9.806;2022-09-12T07:16:23;12.10;99.90
66184;DHT22;52989;48.796;9.806;2022-09-12T07:18:58;12.20;99.90
66184;DHT22;52989;48.796;9.806;2022-09-12T07:21:23;12.30;99.90
66184;DHT22;52989;48.796;9.806;2022-09-12T07:23:49;12.40;99.90
66184;DHT22;52989;48.796;9.806;2022-09-12T07:26:28;12.40;99.90
66184;DHT22;52989;48.796;9.806;2022-09-12T07:28:55;12.70;99.90
66184;DHT22;52989;48.796;9.806;2022-09-12T07:31:23;12.60;99.90
66184;DHT22;52989;48.796;9.806;2022-09-12T07:33:49;12.70;99.90
66184;DHT22;52989;48.796;9.806;2022-09-12T07:36:16;12.90;99.90
66184;DHT22;52989;48.796;9.806;2022-09-12T07:38:42;13.00;99.90
66184;DHT22;52989;48.796;9.806;2022-09-12T07:41:19;12.90;99.90
66184;DHT22;52989;48.796;9.806;2022-09-12T07:43:45;13.10;99.90
66184;DHT22;52989;48.796;9.806;2022-09-12T07:46:12;13.40;99.90
66184;DHT22;52989;48.796;9.806;2022-09-12T07:48:38;13.30;99.90
66184;DHT22;52989;48.796;9.806;2022-09-12T07:51:06;13.80;99.90
66184;DHT22;52989;48.796;9.806;2022-09-12T07:53:40;13.60;99.90
66184;DHT22;52989;48.796;9.806;2022-09-12T07:56:07;13.90;99.90
66184;DHT22;52989;48.796;9.806;2022-09-12T07:58:34;13.90;99.90
66184;DHT22;52989;48.796;9.806;2022-09-12T08:01:21;14.20;99.90
66184;DHT22;52989;48.796;9.806;2022-09-12T08:03:56;14.30;99.90
66184;DHT22;52989;48.796;9.806;2022-09-12T08:06:24;14.60;99.90
66184;DHT22;52989;48.796;9.806;2022-09-12T08:08:51;14.80;99.90
66184;DHT22;52989;48.796;9.806;2022-09-12T08:11:19;15.00;99.90
66184;DHT22;52989;48.796;9.806;2022-09-12T08:13:47;15.20;99.90
66184;DHT22;52989;48.796;9.806;2022-09-12T08:16:17;15.30;99.90
66184;DHT22;52989;48.796;9.806;2022-09-12T08:18:45;15.30;99.90
66184;DHT22;52989;48.796;9.806;2022-09-12T08:21:16;15.40;99.90
66184;DHT22;52989;48.796;9.806;2022-09-12T08:23:43;15.30;99.90
66184;DHT22;52989;48.796;9.806;2022-09-12T08:26:10;15.50;99.90
66184;DHT22;52989;48.796;9.806;2022-09-12T08:28:37;15.80;99.90
66184;DHT22;52989;48.796;9.806;2022-09-12T08:31:12;15.90;99.90
66184;DHT22;52989;48.796;9.806;2022-09-12T08:33:38;16.00;99.90
66184;DHT22;52989;48.796;9.806;2022-09-12T08:36:06;16.10;99.90
66184;DHT22;52989;48.796;9.806;2022-09-12T08:38:32;16.00;99.90
66184;DHT22;52989;48.796;9.806;2022-09-12T08:46:56;16.20;99.90
66184;DHT22;52989;48.796;9.806;2022-09-12T08:49:32;16.80;99.90
66184;DHT22;52989;48.796;9.806;2022-09-12T08:52:03;16.90;99.90
66184;DHT22;52989;48.796;9.806;2022-09-12T08:54:31;16.90;99.90
66184;DHT22;52989;48.796;9.806;2022-09-12T08:57:04;16.80;99.90
66184;DHT22;52989;48.796;9.806;2022-09-12T08:59:36;16.90;99.90
66184;DHT22;52989;48.796;9.806;2022-09-12T09:02:04;17.40;99.90
66184;DHT22;52989;48.796;9.806;2022-09-12T09:04:50;17.60;99.90
66184;DHT22;52989;48.796;9.806;2022-09-12T09:15:50;17.80;99.90
66184;DHT22;52989;48.796;9.806;2022-09-12T09:18:26;18.00;99.90
66184;DHT22;52989;48.796;9.806;2022-09-12T09:21:18;18.10;99.80
66184;DHT22;52989;48.796;9.806;2022-09-12T09:23:49;18.40;99.00
66184;DHT22;52989;48.796;9.806;2022-09-12T09:26:27;18.70;98.00
66184;DHT22;52989;48.796;9.806;2022-09-12T09:29:18;18.70;97.10
66184;DHT22;52989;48.796;9.806;2022-09-12T09:31:48;18.90;97.90
66184;DHT22;52989;48.796;9.806;2022-09-12T09:34:21;19.30;97.10
66184;DHT22;52989;48.796;9.806;2022-09-12T09:44:47;19.30;95.40
66184;DHT22;52989;48.796;9.806;2022-09-12T09:47:13;19.40;94.90
66184;DHT22;52989;48.796;9.806;2022-09-12T09:49:40;19.50;94.10
66184;DHT22;52989;48.796;9.806;2022-09-12T09:52:07;19.80;94.30
66184;DHT22;52989;48.796;9.806;2022-09-12T09:54:54;19.30;96.30
66184;DHT22;52989;48.796;9.806;2022-09-12T10:00:23;19.60;95.90
66184;DHT22;52989;48.796;9.806;2022-09-12T10:03:02;19.90;93.00
66184;DHT22;52989;48.796;9.806;2022-09-12T10:05:29;19.70;95.00
66184;DHT22;52989;48.796;9.806;2022-09-12T10:07:56;19.70;94.90
66184;DHT22;52989;48.796;9.806;2022-09-12T10:10:22;19.80;94.80
66184;DHT22;52989;48.796;9.806;2022-09-12T10:12:48;19.90;95.20
66184;DHT22;52989;48.796;9.806;2022-09-12T10:17:46;20.10;94.30
66184;DHT22;52989;48.796;9.806;2022-09-12T10:20:49;20.20;94.30
66184;DHT22;52989;48.796;9.806;2022-09-12T10:25:47;20.50;93.00
66184;DHT22;52989;48.796;9.806;2022-09-12T10:28:45;20.70;89.80
66184;DHT22;52989;48.796;9.806;2022-09-12T10:31:22;20.50;91.80
66184;DHT22;52989;48.796;9.806;2022-09-12T10:33:57;20.50;90.60
66184;DHT22;52989;48.796;9.806;2022-09-12T10:36:24;20.80;88.40
66184;DHT22;52989;48.796;9.806;2022-09-12T10:38:55;21.10;85.60
66184;DHT22;52989;48.796;9.806;2022-09-12T10:41:22;21.10;88.70
66184;DHT22;52989;48.796;9.806;2022-09-12T10:43:49;21.00;90.10
66184;DHT22;52989;48.796;9.806;2022-09-12T10:48:47;20.90;86.80
66184;DHT22;52989;48.796;9.806;2022-09-12T10:53:48;21.00;90.00
66184;DHT22;52989;48.796;9.806;2022-09-12T10:56:20;20.80;91.30
66184;DHT22;52989;48.796;9.806;2022-09-12T11:06:45;21.60;82.70
66184;DHT22;52989;48.796;9.806;2022-09-12T11:12:13;21.80;83.20
66184;DHT22;52989;48.796;9.806;2022-09-12T11:17:40;22.30;79.70
66184;DHT22;52989;48.796;9.806;2022-09-12T11:20:20;22.30;78.10
66184;DHT22;52989;48.796;9.806;2022-09-12T11:25:51;21.90;80.60
66184;DHT22;52989;48.796;9.806;2022-09-12T11:28:51;22.00;78.10
66184;DHT22;52989;48.796;9.806;2022-09-12T11:31:34;22.20;81.50
66184;DHT22;52989;48.796;9.806;2022-09-12T11:34:07;22.00;84.60
66184;DHT22;52989;48.796;9.806;2022-09-12T11:39:37;22.50;80.30
66184;DHT22;52989;48.796;9.806;2022-09-12T11:42:04;22.70;77.50
66184;DHT22;52989;48.796;9.806;2022-09-12T11:44:38;22.50;74.60
66184;DHT22;52989;48.796;9.806;2022-09-12T11:47:07;22.70;78.50
66184;DHT22;52989;48.796;9.806;2022-09-12T11:49:50;22.60;73.50
66184;DHT22;52989;48.796;9.806;2022-09-12T11:52:19;22.90;74.30
66184;DHT22;52989;48.796;9.806;2022-09-12T11:55:00;22.60;75.70
66184;DHT22;52989;48.796;9.806;2022-09-12T11:57:44;22.50;76.10
66184;DHT22;52989;48.796;9.806;2022-09-12T12:00:22;22.20;72.40
66184;DHT22;52989;48.796;9.806;2022-09-12T12:03:22;22.20;79.10
66184;DHT22;52989;48.796;9.806;2022-09-12T12:06:11;22.60;73.10
66184;DHT22;52989;48.796;9.806;2022-09-12T12:08:40;22.50;72.30
66184;DHT22;52989;48.796;9.806;2022-09-12T12:11:08;22.30;75.90
66184;DHT22;52989;48.796;9.806;2022-09-12T12:13:45;22.60;74.10
66184;DHT22;52989;48.796;9.806;2022-09-12T12:16:19;22.60;75.40
66184;DHT22;52989;48.796;9.806;2022-09-12T12:21:39;22.70;72.60
66184;DHT22;52989;48.796;9.806;2022-09-12T12:34:36;22.80;70.00
66184;DHT22;52989;48.796;9.806;2022-09-12T12:47:43;23.00;67.70
66184;DHT22;52989;48.796;9.806;2022-09-12T12:52:53;22.90;64.40
66184;DHT22;52989;48.796;9.806;2022-09-12T12:55:45;23.10;68.60
66184;DHT22;52989;48.796;9.806;2022-09-12T12:58:34;23.20;71.70
66184;DHT22;52989;48.796;9.806;2022-09-12T13:01:11;23.00;74.20
66184;DHT22;52989;48.796;9.806;2022-09-12T13:03:44;23.10;70.70
66184;DHT22;52989;48.796;9.806;2022-09-12T13:06:41;23.10;72.00
66184;DHT22;52989;48.796;9.806;2022-09-12T13:11:42;23.10;66.10
66184;DHT22;52989;48.796;9.806;2022-09-12T13:15:01;23.10;70.10
66184;DHT22;52989;48.796;9.806;2022-09-12T13:19:53;23.00;65.90
66184;DHT22;52989;48.796;9.806;2022-09-12T13:22:44;23.10;67.00
66184;DHT22;52989;48.796;9.806;2022-09-12T13:25:25;23.30;66.20
66184;DHT22;52989;48.796;9.806;2022-09-12T13:30:36;23.30;62.00
66184;DHT22;52989;48.796;9.806;2022-09-12T13:33:10;23.30;65.40
66184;DHT22;52989;48.796;9.806;2022-09-12T13:44:54;23.20;64.90
66184;DHT22;52989;48.796;9.806;2022-09-12T13:47:42;23.40;65.10
66184;DHT22;52989;48.796;9.806;2022-09-12T13:50:18;23.50;64.90
66184;DHT22;52989;48.796;9.806;2022-09-12T13:52:48;23.40;64.40
66184;DHT22;52989;48.796;9.806;2022-09-12T13:55:24;23.60;65.00
66184;DHT22;52989;48.796;9.806;2022-09-12T14:03:39;23.20;62.60
66184;DHT22;52989;48.796;9.806;2022-09-12T14:06:26;23.10;65.10
66184;DHT22;52989;48.796;9.806;2022-09-12T14:08:52;23.40;65.20
66184;DHT22;52989;48.796;9.806;2022-09-12T14:11:29;23.60;64.70
66184;DHT22;52989;48.796;9.806;2022-09-12T14:13:55;23.80;65.70
66184;DHT22;52989;48.796;9.806;2022-09-12T14:16:22;23.80;66.00
66184;DHT22;52989;48.796;9.806;2022-09-12T14:18:51;23.40;71.30
66184;DHT22;52989;48.796;9.806;2022-09-12T14:21:33;23.10;68.40
66184;DHT22;52989;48.796;9.806;2022-09-12T14:24:00;23.00;69.90
66184;DHT22;52989;48.796;9.806;2022-09-12T14:26:29;23.20;63.30
66184;DHT22;52989;48.796;9.806;2022-09-12T14:28:58;23.30;62.60
66184;DHT22;52989;48.796;9.806;2022-09-12T14:31:33;23.10;64.10
66184;DHT22;52989;48.796;9.806;2022-09-12T14:34:16;23.00;66.40
66184;DHT22;52989;48.796;9.806;2022-09-12T14:36:45;23.00;70.20
66184;DHT22;52989;48.796;9.806;2022-09-12T14:39:31;23.30;67.40
66184;DHT22;52989;48.796;9.806;2022-09-12T14:42:10;23.60;65.20
66184;DHT22;52989;48.796;9.806;2022-09-12T14:44:37;23.40;67.80
66184;DHT22;52989;48.796;9.806;2022-09-12T14:47:18;23.60;64.60
66184;DHT22;52989;48.796;9.806;2022-09-12T14:49:45;23.80;63.40
66184;DHT22;52989;48.796;9.806;2022-09-12T14:52:24;23.70;62.90
66184;DHT22;52989;48.796;9.806;2022-09-12T14:55:02;23.40;65.70
66184;DHT22;52989;48.796;9.806;2022-09-12T14:57:38;22.90;67.00
66184;DHT22;52989;48.796;9.806;2022-09-12T15:02:36;22.90;64.40
66184;DHT22;52989;48.796;9.806;2022-09-12T15:07:35;22.90;64.70
66184;DHT22;52989;48.796;9.806;2022-09-12T15:10:03;23.10;65.20
66184;DHT22;52989;48.796;9.806;2022-09-12T15:12:29;23.20;66.50
66184;DHT22;52989;48.796;9.806;2022-09-12T15:15:19;23.20;68.10
66184;DHT22;52989;48.796;9.806;2022-09-12T15:17:45;23.20;65.90
66184;DHT22;52989;48.796;9.806;2022-09-12T15:20:12;23.20;66.00
66184;DHT22;52989;48.796;9.806;2022-09-12T15:22:38;22.90;68.50
66184;DHT22;52989;48.796;9.806;2022-09-12T15:25:04;22.90;69.20
66184;DHT22;52989;48.796;9.806;2022-09-12T15:27:30;22.80;68.80
66184;DHT22;52989;48.796;9.806;2022-09-12T15:29:56;22.70;68.00
66184;DHT22;52989;48.796;9.806;2022-09-12T15:32:27;22.60;69.40
66184;DHT22;52989;48.796;9.806;2022-09-12T15:34:53;22.50;65.90
66184;DHT22;52989;48.796;9.806;2022-09-12T15:37:20;22.70;66.00
66184;DHT22;52989;48.796;9.806;2022-09-12T15:39:46;22.80;64.90
66184;DHT22;52989;48.796;9.806;2022-09-12T15:42:16;22.90;67.00
66184;DHT22;52989;48.796;9.806;2022-09-12T15:44:41;23.00;66.20
66184;DHT22;52989;48.796;9.806;2022-09-12T15:47:11;23.00;65.20
66184;DHT22;52989;48.796;9.806;2022-09-12T15:49:37;22.90;67.00
66184;DHT22;52989;48.796;9.806;2022-09-12T15:52:02;22.90;65.70
66184;DHT22;52989;48.796;9.806;2022-09-12T15:54:28;22.80;65.10
66184;DHT22;52989;48.796;9.806;2022-09-12T15:56:54;22.70;68.30
66184;DHT22;52989;48.796;9.806;2022-09-12T15:59:19;22.80;66.20
66184;DHT22;52989;48.796;9.806;2022-09-12T16:01:45;22.90;65.40
66184;DHT22;52989;48.796;9.806;2022-09-12T16:04:22;22.70;70.50
66184;DHT22;52989;48.796;9.806;2022-09-12T16:06:49;22.30;70.80
66184;DHT22;52989;48.796;9.806;2022-09-12T16:09:15;22.30;67.10
66184;DHT22;52989;48.796;9.806;2022-09-12T16:11:40;22.40;67.90
66184;DHT22;52989;48.796;9.806;2022-09-12T16:14:06;22.40;69.00
66184;DHT22;52989;48.796;9.806;2022-09-12T16:16:32;22.30;68.30
66184;DHT22;52989;48.796;9.806;2022-09-12T16:18:58;22.10;69.30
66184;DHT22;52989;48.796;9.806;2022-09-12T16:21:23;22.10;67.30
66184;DHT22;52989;48.796;9.806;2022-09-12T16:23:49;22.00;70.70
66184;DHT22;52989;48.796;9.806;2022-09-12T16:26:15;22.00;67.90
66184;DHT22;52989;48.796;9.806;2022-09-12T16:28:41;22.10;69.70
66184;DHT22;52989;48.796;9.806;2022-09-12T16:31:10;21.90;70.00
66184;DHT22;52989;48.796;9.806;2022-09-12T16:33:37;21.90;68.60
66184;DHT22;52989;48.796;9.806;2022-09-12T16:36:08;21.80;68.30
66184;DHT22;52989;48.796;9.806;2022-09-12T16:38:38;21.90;69.20
66184;DHT22;52989;48.796;9.806;2022-09-12T16:41:05;21.70;68.90
66184;DHT22;52989;48.796;9.806;2022-09-12T16:43:32;21.60;70.10
66184;DHT22;52989;48.796;9.806;2022-09-12T16:46:15;21.50;70.30
66184;DHT22;52989;48.796;9.806;2022-09-12T16:48:43;21.40;71.40
66184;DHT22;52989;48.796;9.806;2022-09-12T16:51:10;21.30;71.70
66184;DHT22;52989;48.796;9.806;2022-09-12T16:53:37;21.20;71.80
66184;DHT22;52989;48.796;9.806;2022-09-12T16:56:07;21.20;71.30
66184;DHT22;52989;48.796;9.806;2022-09-12T16:58:34;21.10;72.10
66184;DHT22;52989;48.796;9.806;2022-09-12T17:01:02;21.00;73.40
66184;DHT22;52989;48.796;9.806;2022-09-12T17:03:29;20.80;72.60
66184;DHT22;52989;48.796;9.806;2022-09-12T17:05:59;20.80;73.80
66184;DHT22;52989;48.796;9.806;2022-09-12T17:08:26;20.70;73.00
66184;DHT22;52989;48.796;9.806;2022-09-12T17:11:00;20.60;73.10
66184;DHT22;52989;48.796;9.806;2022-09-12T17:13:27;20.60;74.30
66184;DHT22;52989;48.796;9.806;2022-09-12T17:15:52;20.50;74.60
66184;DHT22;52989;48.796;9.806;2022-09-12T17:18:18;20.40;74.30
66184;DHT22;52989;48.796;9.806;2022-09-12T17:20:44;20.30;76.00
66184;DHT22;52989;48.796;9.806;2022-09-12T17:23:09;20.20;76.20
66184;DHT22;52989;48.796;9.806;2022-09-12T17:25:35;20.10;76.20
66184;DHT22;52989;48.796;9.806;2022-09-12T17:28:01;20.00;75.60
66184;DHT22;52989;48.796;9.806;2022-09-12T17:30:32;20.00;76.80
66184;DHT22;52989;48.796;9.806;2022-09-12T17:32:58;19.70;79.20
66184;DHT22;52989;48.796;9.806;2022-09-12T17:35:23;19.50;79.70
66184;DHT22;52989;48.796;9.806;2022-09-12T17:37:49;19.30;81.10
66184;DHT22;52989;48.796;9.806;2022-09-12T17:40:14;19.20;80.90
66184;DHT22;52989;48.796;9.806;2022-09-12T17:42:40;19.20;80.80
66184;DHT22;52989;48.796;9.806;2022-09-12T17:45:06;19.20;81.60
66184;DHT22;52989;48.796;9.806;2022-09-12T17:47:32;19.10;81.70
66184;DHT22;52989;48.796;9.806;2022-09-12T17:49:58;19.10;81.30
66184;DHT22;52989;48.796;9.806;2022-09-12T17:52:24;19.00;81.30
66184;DHT22;52989;48.796;9.806;2022-09-12T17:54:49;19.00;81.90
66184;DHT22;52989;48.796;9.806;2022-09-12T17:57:15;18.90;82.60
66184;DHT22;52989;48.796;9.806;2022-09-12T17:59:40;18.90;82.20
66184;DHT22;52989;48.796;9.806;2022-09-12T18:02:10;18.80;83.40
66184;DHT22;52989;48.796;9.806;2022-09-12T18:04:42;18.50;84.80
66184;DHT22;52989;48.796;9.806;2022-09-12T18:07:15;18.20;85.90
66184;DHT22;52989;48.796;9.806;2022-09-12T18:09:43;17.90;87.90
66184;DHT22;52989;48.796;9.806;2022-09-12T18:12:09;17.80;88.90
66184;DHT22;52989;48.796;9.806;2022-09-12T18:14:35;17.70;89.80
66184;DHT22;52989;48.796;9.806;2022-09-12T18:17:02;17.60;90.40
66184;DHT22;52989;48.796;9.806;2022-09-12T18:19:28;17.50;89.80
66184;DHT22;52989;48.796;9.806;2022-09-12T18:21:55;17.60;90.30
66184;DHT22;52989;48.796;9.806;2022-09-12T18:24:20;17.70;89.70
66184;DHT22;52989;48.796;9.806;2022-09-12T18:26:46;17.60;90.20